Time;durP1;ratioP1;P1;durP2;ratioP2;P2;SDS_P1;SDS_P2;PMS_P1;PMS_P2;Temp;Humidity;BMP_temperature;BMP_pressure;BME280_temperature;BME280_humidity;BME280_pressure;Samples;Min_cycle;Max_cycle;Signal;HPM_P1;HPM_P2
2022/04/12 00:00:20;;;;;;;;;;;;;;;20.08;39.04;100870.91;5134260;27;20091;-85
2022/04/12 00:02:46;;;;;;;;;;;;;;;20.08;38.99;100868.16;5124243;28;19925;-86
2022/04/12 00:05:12;;;;;;;;;;;;;;;20.07;38.84;100877.50;5117658;28;19915;-85
2022/04/12 00:07:38;;;;;;;;;;;;;;;20.07;39.00;100880.25;5121979;27;19920;-85
2022/04/12 00:10:04;;;;;;;;;;;;;;;20.07;38.90;100873.94;5124590;27;19927;-85
2022/04/12 00:12:29;;;;;;;;;;;;;;;20.07;38.98;100873.94;5117717;28;19919;-85
2022/04/12 00:14:54;;;;;;;;;;;;;;;20.07;38.75;100884.91;5131710;27;19951;-86
2022/04/12 00:20:04;;;;;;;;;;;;;;;20.06;38.94;100891.53;5118504;27;20387;-85
2022/04/12 00:22:29;;;;;;;;;;;;;;;20.05;38.93;100898.91;5115177;27;19916;-84
2022/04/12 00:24:54;;;;;;;;;;;;;;;20.05;39.06;100896.19;5133081;27;20395;-84
2022/04/12 00:27:20;;;;;;;;;;;;;;;20.05;39.15;100887.13;5112962;27;20068;-84
2022/04/12 00:29:45;;;;;;;;;;;;;;;20.04;38.93;100889.06;5131835;27;20006;-85
2022/04/12 00:32:10;;;;;;;;;;;;;;;20.05;39.14;100896.19;5089427;28;19924;-84
2022/04/12 00:34:36;;;;;;;;;;;;;;;20.04;39.01;100891.00;5110683;27;19919;-84
2022/04/12 00:37:01;;;;;;;;;;;;;;;20.04;39.06;100897.31;5082008;27;19926;-86
2022/04/12 00:39:26;;;;;;;;;;;;;;;20.03;39.19;100898.44;5101805;28;19920;-84
2022/04/12 00:41:51;;;;;;;;;;;;;;;20.03;39.00;100903.91;5108149;27;19987;-84
2022/04/12 00:44:17;;;;;;;;;;;;;;;20.03;38.82;100897.59;5105140;28;19971;-84
2022/04/12 00:46:42;;;;;;;;;;;;;;;20.02;39.04;100896.78;5123685;27;19927;-84
2022/04/12 00:49:07;;;;;;;;;;;;;;;20.02;38.81;100890.50;5125121;27;19923;-84
2022/04/12 00:51:32;;;;;;;;;;;;;;;20.02;39.13;100895.97;5113224;28;20329;-85
2022/04/12 00:53:58;;;;;;;;;;;;;;;20.01;38.90;100891.63;5127403;27;19927;-84
2022/04/12 00:56:24;;;;;;;;;;;;;;;20.01;38.90;100895.16;5081422;28;19926;-84
2022/04/12 00:58:49;;;;;;;;;;;;;;;20.01;39.02;100886.13;5108876;27;19916;-84
2022/04/12 01:01:15;;;;;;;;;;;;;;;20.00;38.81;100882.56;5118731;27;20070;-84
2022/04/12 01:03:41;;;;;;;;;;;;;;;20.00;38.69;100868.84;5131129;27;19924;-84
2022/04/12 01:06:07;;;;;;;;;;;;;;;19.99;38.69;100871.91;5113930;28;19968;-84
2022/04/12 01:08:33;;;;;;;;;;;;;;;19.99;38.85;100872.72;5140749;27;19927;-85
2022/04/12 01:11:04;;;;;;;;;;;;;;;19.99;39.04;100880.13;5121681;27;20330;-85
2022/04/12 01:13:29;;;;;;;;;;;;;;;19.98;39.11;100878.50;5106958;27;20499;-84
2022/04/12 01:15:54;;;;;;;;;;;;;;;19.98;39.01;100884.81;5111414;27;19933;-85
2022/04/12 01:18:19;;;;;;;;;;;;;;;19.98;39.15;100875.75;5113366;28;19975;-84
2022/04/12 01:20:45;;;;;;;;;;;;;;;19.97;38.90;100865.91;5129644;27;19923;-84
2022/04/12 01:23:22;;;;;;;;;;;;;;;19.97;38.66;100876.88;5112175;28;19931;-84
2022/04/12 01:25:48;;;;;;;;;;;;;;;19.96;39.05;100869.75;5132014;27;19941;-84
2022/04/12 01:28:13;;;;;;;;;;;;;;;19.96;38.90;100867.00;5107575;28;19919;-85
2022/04/12 01:30:38;;;;;;;;;;;;;;;19.97;38.96;100871.41;5124307;27;20408;-84
2022/04/12 01:33:04;;;;;;;;;;;;;;;19.95;38.87;100868.94;5121306;27;19920;-84
2022/04/12 01:35:30;;;;;;;;;;;;;;;19.95;39.17;100868.13;5122235;27;19923;-84
2022/04/12 01:37:55;;;;;;;;;;;;;;;19.95;39.11;100865.41;5112077;27;20011;-84
2022/04/12 01:40:20;;;;;;;;;;;;;;;19.93;38.91;100864.88;5109315;27;19958;-84
2022/04/12 01:42:46;;;;;;;;;;;;;;;19.94;38.99;100861.03;5102964;27;20056;-84
2022/04/12 01:45:11;;;;;;;;;;;;;;;19.93;39.08;100865.69;5094339;28;19969;-85
2022/04/12 01:47:37;;;;;;;;;;;;;;;19.92;38.94;100855.84;5093919;28;19920;-84
2022/04/12 01:50:03;;;;;;;;;;;;;;;19.92;38.79;100855.84;5108386;28;19920;-84
2022/04/12 01:52:28;;;;;;;;;;;;;;;19.91;38.99;100854.25;5106314;27;19994;-84
2022/04/12 01:54:53;;;;;;;;;;;;;;;19.91;39.08;100856.97;5119183;27;19920;-85
2022/04/12 01:57:18;;;;;;;;;;;;;;;19.91;39.12;100856.97;5128569;27;19920;-84
2022/04/12 01:59:44;;;;;;;;;;;;;;;19.89;39.02;100860.00;5129060;27;19942;-84
2022/04/12 02:02:09;;;;;;;;;;;;;;;19.91;39.02;100864.38;5131201;27;19965;-87
2022/04/12 02:04:34;;;;;;;;;;;;;;;19.89;38.89;100857.28;5107949;28;19923;-85
2022/04/12 02:07:00;;;;;;;;;;;;;;;19.89;39.09;100857.28;5095345;28;20398;-84
2022/04/12 02:09:25;;;;;;;;;;;;;;;19.89;38.99;100867.44;5112541;28;19922;-85
2022/04/12 02:11:53;;;;;;;;;;;;;;;19.88;38.90;100874.84;5111503;27;19952;-85
2022/04/12 02:14:18;;;;;;;;;;;;;;;19.88;39.14;100872.09;5099713;28;20287;-84
2022/04/12 02:16:43;;;;;;;;;;;;;;;19.87;38.93;100866.91;5111582;28;19924;-84
2022/04/12 02:19:08;;;;;;;;;;;;;;;19.87;39.12;100861.44;5114858;27;20035;-85
2022/04/12 02:21:34;;;;;;;;;;;;;;;19.86;39.14;100849.66;5096410;28;19920;-84
2022/04/12 02:23:59;;;;;;;;;;;;;;;19.85;38.83;100845.28;5121887;27;19920;-84
2022/04/12 02:26:24;;;;;;;;;;;;;;;19.86;38.88;100852.41;5098380;28;19926;-84
2022/04/12 02:28:49;;;;;;;;;;;;;;;19.85;39.13;100850.75;5131425;27;19931;-84
2022/04/12 02:31:14;;;;;;;;;;;;;;;19.85;39.03;100849.94;5077266;28;20019;-84
2022/04/12 02:33:40;;;;;;;;;;;;;;;19.85;38.89;100849.94;5088463;28;19927;-85
2022/04/12 02:36:05;;;;;;;;;;;;;;;19.84;38.81;100846.41;5108652;28;19928;-84
2022/04/12 02:38:30;;;;;;;;;;;;;;;19.83;38.80;100836.56;5126655;27;20051;-85
2022/04/12 02:40:56;;;;;;;;;;;;;;;19.83;39.11;100831.09;5091422;28;19959;-84
2022/04/12 02:43:21;;;;;;;;;;;;;;;19.83;38.93;100838.47;5127713;27;19923;-84
2022/04/12 02:45:47;;;;;;;;;;;;;;;19.82;39.04;100821.22;5112699;28;19920;-84
2022/04/12 02:48:12;;;;;;;;;;;;;;;19.82;38.93;100820.41;5095560;28;19920;-88
2022/04/12 02:50:37;;;;;;;;;;;;;;;19.81;39.04;100825.09;5102919;28;19976;-84
2022/04/12 02:53:03;;;;;;;;;;;;;;;19.81;38.99;100825.09;5124763;27;19997;-86
2022/04/12 02:55:28;;;;;;;;;;;;;;;19.81;39.09;100824.28;5111957;28;19973;-84
2022/04/12 02:57:53;;;;;;;;;;;;;;;19.80;39.06;100828.13;5111187;28;19923;-85
2022/04/12 03:00:19;;;;;;;;;;;;;;;19.80;39.07;100823.44;5122666;27;20439;-84
2022/04/12 03:02:44;;;;;;;;;;;;;;;19.80;39.03;100817.97;5116848;27;20401;-84
2022/04/12 03:05:10;;;;;;;;;;;;;;;19.80;38.93;100811.66;5107065;27;19920;-85
2022/04/12 03:07:35;;;;;;;;;;;;;;;19.79;38.78;100816.34;5100780;28;19950;-85
2022/04/12 03:10:00;;;;;;;;;;;;;;;19.79;39.00;100807.31;5110489;28;19924;-85
2022/04/12 03:12:26;;;;;;;;;;;;;;;19.79;38.74;100799.09;5107385;28;19963;-85
2022/04/12 03:14:51;;;;;;;;;;;;;;;19.78;38.78;100803.78;5103651;28;19923;-84
2022/04/12 03:17:17;;;;;;;;;;;;;;;19.77;38.99;100802.13;5098730;28;20137;-86
2022/04/12 03:19:42;;;;;;;;;;;;;;;19.77;39.02;100802.13;5127468;27;19966;-85
2022/04/12 03:22:07;;;;;;;;;;;;;;;19.77;39.09;100810.34;5091106;28;19999;-84
2022/04/12 03:24:33;;;;;;;;;;;;;;;19.78;38.95;100805.66;5128008;27;20325;-84
2022/04/12 03:26:58;;;;;;;;;;;;;;;19.76;38.89;100802.44;5107632;28;19920;-85
2022/04/12 03:29:25;;;;;;;;;;;;;;;19.76;38.88;100811.47;5097648;28;19931;-84
2022/04/12 03:31:51;;;;;;;;;;;;;;;19.75;38.89;100804.34;5087921;28;19947;-84
2022/04/12 03:34:18;;;;;;;;;;;;;;;19.75;38.96;100798.88;5123014;27;20368;-87
2022/04/12 03:36:43;;;;;;;;;;;;;;;19.75;39.19;100793.38;5101181;28;19924;-84
2022/04/12 03:39:11;;;;;;;;;;;;;;;19.74;39.15;100783.56;5111437;28;19975;-85
2022/04/12 03:41:36;;;;;;;;;;;;;;;19.74;38.99;100780.81;5127640;28;19927;-85
2022/04/12 03:44:01;;;;;;;;;;;;;;;19.75;39.06;100773.41;5094780;28;19920;-85
2022/04/12 03:46:27;;;;;;;;;;;;;;;19.74;39.17;100780.00;5107990;28;19920;-85
2022/04/12 03:48:52;;;;;;;;;;;;;;;19.74;39.09;100785.50;5101560;28;20068;-84
2022/04/12 03:51:18;;;;;;;;;;;;;;;19.73;39.09;100784.69;5098851;28;20018;-86
2022/04/12 03:53:43;;;;;;;;;;;;;;;19.73;38.94;100778.38;5098946;28;19935;-85
2022/04/12 03:56:09;;;;;;;;;;;;;;;19.73;39.37;100775.63;5087028;28;19916;-84
2022/04/12 03:58:37;;;;;;;;;;;;;;;19.73;39.14;100772.88;5129927;27;19920;-84
2022/04/12 04:01:03;;;;;;;;;;;;;;;19.72;38.94;100772.06;5114560;27;20298;-85
2022/04/12 04:03:29;;;;;;;;;;;;;;;19.72;39.09;100780.28;5109700;27;19931;-84
2022/04/12 04:05:55;;;;;;;;;;;;;;;19.71;39.00;100781.44;5114938;27;20389;-84
2022/04/12 04:08:21;;;;;;;;;;;;;;;19.71;38.97;100769.66;5115880;27;19919;-88
2022/04/12 04:10:46;;;;;;;;;;;;;;;19.71;39.23;100775.13;5095415;28;19956;-84
2022/04/12 04:13:11;;;;;;;;;;;;;;;19.70;39.10;100785.25;5124844;27;20010;-84
2022/04/12 04:15:37;;;;;;;;;;;;;;;19.70;38.90;100801.72;5110991;27;19920;-85
2022/04/12 04:18:02;;;;;;;;;;;;;;;19.70;38.98;100803.63;5117355;27;19920;-84
2022/04/12 04:20:28;;;;;;;;;;;;;;;19.70;39.00;100803.63;5096380;28;19931;-85
2022/04/12 04:22:53;;;;;;;;;;;;;;;19.69;39.25;100810.25;5098065;28;19964;-86
2022/04/12 04:25:18;;;;;;;;;;;;;;;19.69;38.90;100821.22;5119338;27;19993;-85
2022/04/12 04:27:44;;;;;;;;;;;;;;;19.69;39.23;100826.69;5114509;28;20014;-84
2022/04/12 04:30:09;;;;;;;;;;;;;;;19.68;38.98;100834.09;5131111;27;19920;-84
2022/04/12 04:32:35;;;;;;;;;;;;;;;19.68;39.25;100831.38;5096191;28;19919;-85
2022/04/12 04:35:01;;;;;;;;;;;;;;;19.69;38.93;100837.66;5112865;27;20159;-84
2022/04/12 04:37:26;;;;;;;;;;;;;;;19.68;38.98;100828.63;5115153;27;19916;-85
2022/04/12 04:39:51;;;;;;;;;;;;;;;19.67;39.05;100830.53;5130289;27;19927;-85
2022/04/12 04:42:17;;;;;;;;;;;;;;;19.67;38.97;100821.50;5110833;28;19968;-84
2022/04/12 04:44:43;;;;;;;;;;;;;;;19.67;38.98;100818.75;5133996;27;19920;-85
2022/04/12 04:47:08;;;;;;;;;;;;;;;19.66;39.03;100812.44;5113587;28;20315;-84
2022/04/12 04:49:33;;;;;;;;;;;;;;;19.66;39.13;100812.44;5129703;27;19916;-85
2022/04/12 04:51:58;;;;;;;;;;;;;;;19.65;39.02;100807.25;5123743;27;20280;-84
2022/04/12 04:54:24;;;;;;;;;;;;;;;19.65;39.15;100799.03;5126573;27;19985;-87
2022/04/12 04:56:49;;;;;;;;;;;;;;;19.66;38.95;100792.44;5113677;28;19924;-88
2022/04/12 04:59:14;;;;;;;;;;;;;;;19.65;39.19;100794.38;5122549;27;20282;-84
2022/04/12 05:01:39;;;;;;;;;;;;;;;19.64;39.17;100791.94;5109442;28;19924;-85
2022/04/12 05:04:05;;;;;;;;;;;;;;;19.64;39.18;100790.00;5111950;27;19920;-84
2022/04/12 05:06:31;;;;;;;;;;;;;;;19.64;39.19;100790.00;5095866;28;19961;-85
2022/04/12 05:08:56;;;;;;;;;;;;;;;19.64;39.37;100783.72;5104193;27;19933;-81
2022/04/12 05:11:22;;;;;;;;;;;;;;;19.63;39.46;100791.13;5101056;28;19928;-87
2022/04/12 05:13:47;;;;;;;;;;;;;;;19.64;39.18;100789.19;5105663;28;19959;-87
2022/04/12 05:16:12;;;;;;;;;;;;;;;19.63;38.86;100802.09;5111503;28;19921;-86
2022/04/12 05:18:38;;;;;;;;;;;;;;;19.64;39.11;100808.38;5095185;28;19942;-87
2022/04/12 05:21:03;;;;;;;;;;;;;;;19.63;39.35;100804.84;5124555;27;19949;-79
2022/04/12 05:23:28;;;;;;;;;;;;;;;19.64;39.19;100806.44;5110396;27;19926;-87
2022/04/12 05:25:54;;;;;;;;;;;;;;;19.66;39.24;100800.69;5137120;27;20018;-81
2022/04/12 05:28:22;;;;;;;;;;;;;;;19.67;39.57;100791.34;5114230;28;20317;-84
2022/04/12 05:30:48;;;;;;;;;;;;;;;19.69;39.52;100793.81;5097286;28;19920;-82
2022/04/12 05:33:13;;;;;;;;;;;;;;;19.70;39.70;100798.97;5125027;27;20310;-86
2022/04/12 05:35:38;;;;;;;;;;;;;;;19.72;39.88;100795.94;5096892;28;19931;-85
2022/04/12 05:38:06;;;;;;;;;;;;;;;19.73;39.83;100803.03;5092859;28;19916;-87
2022/04/12 05:40:31;;;;;;;;;;;;;;;19.73;39.72;100812.09;5091816;28;20277;-85
2022/04/12 05:42:56;;;;;;;;;;;;;;;19.73;39.79;100814.81;5109206;28;20431;-84
2022/04/12 05:45:22;;;;;;;;;;;;;;;19.73;40.00;100805.75;5110494;27;20018;-87
2022/04/12 05:47:49;;;;;;;;;;;;;;;19.73;39.80;100812.09;5101376;28;19967;-85
2022/04/12 05:50:15;;;;;;;;;;;;;;;19.73;39.96;100820.31;5100507;28;19927;-85
2022/04/12 05:52:41;;;;;;;;;;;;;;;19.74;39.87;100826.59;5099898;28;19920;-86
2022/04/12 05:55:07;;;;;;;;;;;;;;;19.72;40.01;100824.16;5113997;27;19926;-88
2022/04/12 05:57:34;;;;;;;;;;;;;;;19.73;39.87;100819.47;5110058;28;20371;-88
2022/04/12 06:00:00;;;;;;;;;;;;;;;19.73;39.89;100823.06;5093089;28;20500;-87
2022/04/12 06:02:25;;;;;;;;;;;;;;;19.74;40.15;100818.38;5112059;28;19932;-90
2022/04/12 06:04:50;;;;;;;;;;;;;;;19.73;40.06;100811.25;5129776;27;19968;-88
2022/04/12 06:07:15;;;;;;;;;;;;;;;19.73;40.18;100803.88;5107676;28;19942;-81
2022/04/12 06:09:40;;;;;;;;;;;;;;;19.74;39.88;100807.41;5102976;28;20061;-81
2022/04/12 06:12:06;;;;;;;;;;;;;;;19.73;40.08;100801.13;5125520;27;19921;-81
2022/04/12 06:14:31;;;;;;;;;;;;;;;19.74;39.99;100797.25;5124227;27;20303;-89
2022/04/12 06:16:56;;;;;;;;;;;;;;;19.74;40.05;100802.75;5125828;27;20280;-91
2022/04/12 06:19:22;;;;;;;;;;;;;;;19.74;39.89;100790.97;5102126;28;19971;-92
2022/04/12 06:21:47;;;;;;;;;;;;;;;19.74;40.14;100801.94;5078195;28;19924;-86
2022/04/12 06:24:13;;;;;;;;;;;;;;;19.74;40.12;100813.69;5099642;28;19923;-86
2022/04/12 06:26:39;;;;;;;;;;;;;;;19.74;40.12;100819.19;5090600;28;19939;-85
2022/04/12 06:29:04;;;;;;;;;;;;;;;19.75;40.17;100818.06;5127204;27;20289;-88
2022/04/12 06:31:29;;;;;;;;;;;;;;;19.74;39.82;100824.66;5103427;28;20440;-87
2022/04/12 06:33:54;;;;;;;;;;;;;;;19.75;40.14;100820.78;5075507;28;19951;-85
2022/04/12 06:36:20;;;;;;;;;;;;;;;19.74;40.05;100810.16;5092492;28;19919;-86
2022/04/12 06:38:45;;;;;;;;;;;;;;;19.75;40.13;100803.53;5090983;28;21821;-85
2022/04/12 06:41:11;;;;;;;;;;;;;;;19.75;39.94;100800.81;5099094;28;19924;-87
2022/04/12 06:43:36;;;;;;;;;;;;;;;19.75;40.14;100815.31;5093816;28;19920;-84
2022/04/12 06:46:01;;;;;;;;;;;;;;;19.75;40.12;100820.78;5142096;27;19924;-83
2022/04/12 06:48:27;;;;;;;;;;;;;;;19.75;40.00;100815.31;5133732;27;20386;-83
2022/04/12 06:50:52;;;;;;;;;;;;;;;19.75;40.01;100811.75;5129808;27;19928;-85
2022/04/12 06:53:17;;;;;;;;;;;;;;;19.76;40.07;100811.47;5075955;28;20371;-83
2022/04/12 06:55:43;;;;;;;;;;;;;;;19.75;40.05;100804.34;5076498;28;20377;-84
2022/04/12 06:58:08;;;;;;;;;;;;;;;19.76;40.27;100814.22;5100972;28;20308;-84
2022/04/12 07:00:34;;;;;;;;;;;;;;;19.76;40.03;100816.97;5105130;28;19981;-85
2022/04/12 07:02:59;;;;;;;;;;;;;;;19.76;39.96;100811.47;5089660;28;19923;-84
2022/04/12 07:05:24;;;;;;;;;;;;;;;19.77;39.97;100809.53;5117973;27;19928;-83
2022/04/12 07:07:50;;;;;;;;;;;;;;;19.77;39.91;100809.53;5075603;28;20015;-84
2022/04/12 07:10:16;;;;;;;;;;;;;;;19.77;39.92;100809.53;5083499;28;19970;-83
2022/04/12 07:12:42;;;;;;;;;;;;;;;19.77;40.03;100810.34;5089265;28;19920;-84
2022/04/12 07:15:08;;;;;;;;;;;;;;;19.78;40.02;100805.66;5104872;28;19954;-84
2022/04/12 07:17:33;;;;;;;;;;;;;;;19.78;39.86;100808.41;5089781;28;19928;-83
2022/04/12 07:19:59;;;;;;;;;;;;;;;19.78;40.02;100800.19;5079194;28;20004;-83
2022/04/12 07:22:24;;;;;;;;;;;;;;;19.78;39.92;100806.50;5120612;27;19924;-83
2022/04/12 07:24:50;;;;;;;;;;;;;;;19.78;39.97;100809.25;5087943;28;19928;-84
2022/04/12 07:27:15;;;;;;;;;;;;;;;19.78;39.94;100805.66;5089489;28;19927;-83
2022/04/12 07:29:40;;;;;;;;;;;;;;;19.78;39.78;100805.66;5110864;27;20301;-83
2022/04/12 07:32:06;;;;;;;;;;;;;;;19.78;39.73;100812.00;5093480;28;19920;-83
2022/04/12 07:34:31;;;;;;;;;;;;;;;19.78;39.96;100814.72;5094418;28;20352;-84
2022/04/12 07:36:56;;;;;;;;;;;;;;;19.79;39.78;100812.78;5101617;28;19969;-83
2022/04/12 07:39:23;;;;;;;;;;;;;;;19.78;39.85;100820.22;5110506;27;20296;-83
2022/04/12 07:41:48;;;;;;;;;;;;;;;19.79;39.70;100821.03;5106066;28;20281;-83
2022/04/12 07:44:14;;;;;;;;;;;;;;;19.80;39.72;100814.41;5120007;27;19922;-83
2022/04/12 07:46:40;;;;;;;;;;;;;;;19.80;39.72;100811.66;5106309;27;20546;-84
2022/04/12 07:49:05;;;;;;;;;;;;;;;19.80;39.85;100808.94;5110902;27;19973;-84
2022/04/12 07:51:30;;;;;;;;;;;;;;;19.80;39.70;100812.47;5108300;27;19925;-83
2022/04/12 07:53:55;;;;;;;;;;;;;;;19.80;39.85;100808.94;5075002;28;20379;-83
2022/04/12 07:56:21;;;;;;;;;;;;;;;19.80;39.84;100809.72;5077323;28;19973;-83
2022/04/12 07:58:46;;;;;;;;;;;;;;;19.81;39.72;100811.38;5109368;28;20323;-83
2022/04/12 08:01:11;;;;;;;;;;;;;;;19.81;39.66;100813.31;5126926;27;20022;-83
2022/04/12 08:03:37;;;;;;;;;;;;;;;19.81;39.76;100811.38;5090416;28;19916;-83
2022/04/12 08:06:02;;;;;;;;;;;;;;;19.81;39.70;100813.31;5109380;28;20360;-83
2022/04/12 08:08:28;;;;;;;;;;;;;;;19.82;39.81;100818.47;5083625;28;19920;-83
2022/04/12 08:10:53;;;;;;;;;;;;;;;19.83;39.68;100808.31;5124770;27;20295;-83
2022/04/12 08:13:19;;;;;;;;;;;;;;;19.83;39.82;100816.53;5129205;27;19924;-83
2022/04/12 08:15:44;;;;;;;;;;;;;;;19.83;39.75;100814.63;5109808;27;19921;-83
2022/04/12 08:18:09;;;;;;;;;;;;;;;19.84;39.69;100824.47;5081670;28;20326;-83
2022/04/12 08:20:35;;;;;;;;;;;;;;;19.84;39.77;100829.94;5106977;28;19951;-83
2022/04/12 08:23:02;;;;;;;;;;;;;;;19.84;39.84;100827.22;5129580;27;19927;-83
2022/04/12 08:25:27;;;;;;;;;;;;;;;19.85;39.81;100828.03;5116076;27;19968;-83
2022/04/12 08:27:53;;;;;;;;;;;;;;;19.87;39.81;100832.09;5090200;28;20351;-82
2022/04/12 08:30:18;;;;;;;;;;;;;;;19.87;39.78;100817.56;5108979;28;19924;-83
2022/04/12 08:32:43;;;;;;;;;;;;;;;19.87;39.69;100806.59;5095866;28;19924;-83
2022/04/12 08:35:09;;;;;;;;;;;;;;;19.86;39.59;100797.56;5110712;28;19920;-83
2022/04/12 08:37:34;;;;;;;;;;;;;;;19.87;39.71;100780.00;5104798;27;20283;-83
2022/04/12 08:39:59;;;;;;;;;;;;;;;19.88;39.65;100787.13;5101076;28;20136;-83
2022/04/12 08:42:25;;;;;;;;;;;;;;;19.88;39.74;100787.13;5085785;28;19921;-83
2022/04/12 08:44:50;;;;;;;;;;;;;;;19.88;39.72;100781.66;5135768;27;19931;-79
2022/04/12 08:47:16;;;;;;;;;;;;;;;19.89;39.78;100775.03;5107580;28;19928;-81
2022/04/12 08:49:42;;;;;;;;;;;;;;;19.89;39.90;100771.47;5075081;28;19927;-82
2022/04/12 08:52:11;;;;;;;;;;;;;;;19.89;39.80;100775.03;5075320;28;19991;-81
2022/04/12 08:54:45;;;;;;;;;;;;;;;19.91;39.91;100776.66;5138557;27;19920;-80
2022/04/12 08:57:11;;;;;;;;;;;;;;;19.92;39.66;100775.53;5107623;28;19916;-81
2022/04/12 08:59:37;;;;;;;;;;;;;;;19.91;39.63;100772.00;5092569;28;19961;-81
2022/04/12 09:02:03;;;;;;;;;;;;;;;19.92;39.76;100759.91;5112996;27;19924;-80
2022/04/12 09:04:28;;;;;;;;;;;;;;;19.91;39.72;100765.69;5087816;28;19924;-83
2022/04/12 09:06:55;;;;;;;;;;;;;;;19.93;39.78;100760.72;5083336;28;19917;-83
2022/04/12 09:09:24;;;;;;;;;;;;;;;19.93;39.80;100756.03;5107203;27;19959;-83
2022/04/12 09:12:03;;;;;;;;;;;;;;;19.93;39.79;100747.81;5089721;28;19916;-84
2022/04/12 09:14:58;;;;;;;;;;;;;;;19.93;39.77;100744.25;5133633;27;19924;-86
2022/04/12 09:17:35;;;;;;;;;;;;;;;19.93;39.53;100736.84;5092406;28;19916;-85
2022/04/12 09:20:01;;;;;;;;;;;;;;;19.95;39.70;100742.03;5092632;28;19916;-86
2022/04/12 09:22:28;;;;;;;;;;;;;;;19.95;39.81;100744.78;5126696;27;19920;-84
2022/04/12 09:25:00;;;;;;;;;;;;;;;19.95;39.62;100740.09;5089017;28;19927;-84
2022/04/12 09:27:26;;;;;;;;;;;;;;;19.96;39.76;100735.41;5095535;28;20322;-83
2022/04/12 09:29:53;;;;;;;;;;;;;;;19.96;39.74;100736.25;5091413;28;19924;-83
2022/04/12 09:32:19;;;;;;;;;;;;;;;19.97;39.67;100750.75;5100675;28;19920;-86
2022/04/12 09:34:45;;;;;;;;;;;;;;;19.98;39.64;100744.16;5091680;28;19916;-83
2022/04/12 09:37:20;;;;;;;;;;;;;;;19.99;39.80;100754.03;5092676;28;20004;-85
2022/04/12 09:39:46;;;;;;;;;;;;;;;19.99;39.48;100754.03;5126260;27;19916;-87
2022/04/12 09:42:12;;;;;;;;;;;;;;;20.00;39.73;100750.16;5090523;28;19920;-86
2022/04/12 09:44:37;;;;;;;;;;;;;;;20.01;39.89;100749.03;5080410;28;20011;-83
2022/04/12 09:47:02;;;;;;;;;;;;;;;20.02;39.72;100742.44;5105868;27;20357;-87
2022/04/12 09:49:41;;;;;;;;;;;;;;;20.02;39.68;100737.75;5126619;27;19924;-87
2022/04/12 09:52:10;;;;;;;;;;;;;;;20.03;39.66;100738.56;5090845;28;19923;-87
2022/04/12 09:54:35;;;;;;;;;;;;;;;20.04;39.71;100734.72;5106951;28;19940;-85
2022/04/12 09:57:03;;;;;;;;;;;;;;;20.04;39.70;100724.56;5095000;28;19916;-85
2022/04/12 09:59:32;;;;;;;;;;;;;;;20.05;39.84;100720.69;5104306;28;19974;-85
2022/04/12 10:01:58;;;;;;;;;;;;;;;20.06;39.81;100719.59;5092140;28;19977;-84
2022/04/12 10:04:23;;;;;;;;;;;;;;;20.07;39.78;100718.44;5107589;28;19985;-84
2022/04/12 10:06:51;;;;;;;;;;;;;;;20.08;39.57;100713.78;5106935;28;19924;-84
2022/04/12 10:09:17;;;;;;;;;;;;;;;20.09;39.61;100721.72;5092814;28;19920;-84
2022/04/12 10:11:43;;;;;;;;;;;;;;;20.09;39.80;100704.44;5103092;28;19935;-84
2022/04/12 10:14:10;;;;;;;;;;;;;;;20.10;39.78;100714.28;5079216;28;20328;-85
2022/04/12 10:16:35;;;;;;;;;;;;;;;20.11;39.54;100710.44;5115271;27;19943;-84
2022/04/12 10:19:01;;;;;;;;;;;;;;;20.11;39.70;100707.69;5110980;27;19931;-85
2022/04/12 10:21:26;;;;;;;;;;;;;;;20.12;39.96;100703.81;5122690;27;19921;-85
2022/04/12 10:23:56;;;;;;;;;;;;;;;20.13;39.72;100708.19;5123584;27;20403;-85
2022/04/12 10:26:22;;;;;;;;;;;;;;;20.14;39.76;100709.81;5086852;28;20372;-85
2022/04/12 10:28:52;;;;;;;;;;;;;;;20.15;39.78;100702.41;5088269;28;19920;-84
2022/04/12 10:31:19;;;;;;;;;;;;;;;20.15;39.85;100699.66;5091481;28;19958;-83
2022/04/12 10:34:02;;;;;;;;;;;;;;;20.16;39.65;100707.59;5090731;28;19999;-83
2022/04/12 10:36:46;;;;;;;;;;;;;;;20.18;39.82;100701.78;5085629;28;20237;-83
2022/04/12 10:39:14;;;;;;;;;;;;;;;20.19;39.80;100703.41;5117792;27;19973;-84
2022/04/12 10:41:42;;;;;;;;;;;;;;;20.19;39.60;100700.66;5087245;28;19955;-84
2022/04/12 10:44:18;;;;;;;;;;;;;;;20.20;39.81;100694.88;5108456;27;19924;-84
2022/04/12 10:46:47;;;;;;;;;;;;;;;20.21;39.68;100698.41;5091710;28;19951;-83
2022/04/12 10:49:13;;;;;;;;;;;;;;;20.22;39.88;100697.31;5112645;27;19925;-84
2022/04/12 10:51:39;;;;;;;;;;;;;;;20.22;39.81;100695.38;5096298;28;19925;-83
2022/04/12 10:54:05;;;;;;;;;;;;;;;20.23;39.80;100693.44;5129841;27;19924;-83
2022/04/12 10:56:30;;;;;;;;;;;;;;;20.24;39.61;100686.84;5100349;28;19931;-83
2022/04/12 10:58:56;;;;;;;;;;;;;;;20.24;39.77;100692.34;5086756;28;19936;-84
2022/04/12 11:01:30;;;;;;;;;;;;;;;20.25;39.86;100691.19;5090041;28;19916;-83
2022/04/12 11:03:56;;;;;;;;;;;;;;;20.26;39.78;100701.88;5124608;27;20061;-84
2022/04/12 11:06:29;;;;;;;;;;;;;;;20.27;39.73;100705.41;5092108;28;19954;-83
2022/04/12 11:08:55;;;;;;;;;;;;;;;20.28;39.92;100704.28;5083703;28;19935;-84
2022/04/12 11:11:22;;;;;;;;;;;;;;;20.28;39.80;100698.81;5123352;28;19920;-84
2022/04/12 11:13:49;;;;;;;;;;;;;;;20.29;39.62;100692.22;5087503;28;19994;-83
2022/04/12 11:16:17;;;;;;;;;;;;;;;20.30;39.73;100680.09;5071838;28;19929;-83
2022/04/12 11:18:47;;;;;;;;;;;;;;;20.31;39.72;100665.28;5082939;28;19924;-83
2022/04/12 11:21:13;;;;;;;;;;;;;;;20.31;39.66;100663.34;5097918;28;19927;-84
2022/04/12 11:23:49;;;;;;;;;;;;;;;20.33;39.50;100665.78;5105439;28;20014;-84
2022/04/12 11:26:32;;;;;;;;;;;;;;;20.34;39.78;100666.59;5070317;28;20046;-84
2022/04/12 11:28:58;;;;;;;;;;;;;;;20.34;39.53;100666.59;5104990;28;19936;-80
2022/04/12 11:31:23;;;;;;;;;;;;;;;20.34;39.75;100667.41;5109720;28;19927;-84
2022/04/12 11:33:49;;;;;;;;;;;;;;;20.34;39.63;100670.16;5073995;28;20397;-85
2022/04/12 11:36:18;;;;;;;;;;;;;;;20.36;39.52;100669.81;5109237;27;20291;-84
2022/04/12 11:38:43;;;;;;;;;;;;;;;20.36;39.55;100669.81;5104266;28;19932;-84
2022/04/12 11:41:08;;;;;;;;;;;;;;;20.37;39.74;100676.94;5071941;28;20269;-85
2022/04/12 11:43:34;;;;;;;;;;;;;;;20.37;39.61;100675.00;5114925;28;19924;-85
2022/04/12 11:46:01;;;;;;;;;;;;;;;20.37;39.81;100680.50;5075311;28;19924;-84
2022/04/12 11:48:31;;;;;;;;;;;;;;;20.38;39.88;100670.31;5118989;27;19920;-85
2022/04/12 11:50:57;;;;;;;;;;;;;;;20.38;39.77;100671.13;5102334;28;19966;-85
2022/04/12 11:53:23;;;;;;;;;;;;;;;20.39;39.62;100674.72;5101795;28;19964;-85
2022/04/12 11:55:48;;;;;;;;;;;;;;;20.38;39.79;100668.38;5110136;27;19963;-84
2022/04/12 11:58:14;;;;;;;;;;;;;;;20.40;39.85;100673.56;5119078;28;20494;-85
2022/04/12 12:00:39;;;;;;;;;;;;;;;20.39;39.88;100675.50;5120426;27;19920;-85
2022/04/12 12:03:05;;;;;;;;;;;;;;;20.40;39.81;100671.63;5119233;27;19928;-84
2022/04/12 12:05:30;;;;;;;;;;;;;;;20.41;39.66;100667.78;5101375;28;19984;-84
2022/04/12 12:08:00;;;;;;;;;;;;;;;20.41;39.91;100670.53;5110557;28;19970;-84
2022/04/12 12:10:25;;;;;;;;;;;;;;;20.43;39.83;100678.44;5093759;28;19928;-84
2022/04/12 12:12:50;;;;;;;;;;;;;;;20.43;39.68;100672.94;5102007;28;19924;-84
2022/04/12 12:15:16;;;;;;;;;;;;;;;20.43;39.71;100673.75;5102691;28;19965;-85
2022/04/12 12:17:44;;;;;;;;;;;;;;;20.44;39.67;100669.09;5105393;28;20424;-84
2022/04/12 12:20:09;;;;;;;;;;;;;;;20.45;39.84;100667.97;5109511;28;19921;-85
2022/04/12 12:22:36;;;;;;;;;;;;;;;20.45;39.84;100660.53;5099867;28;20003;-82
2022/04/12 12:25:01;;;;;;;;;;;;;;;20.46;39.78;100662.19;5127225;27;19997;-84
2022/04/12 12:27:27;;;;;;;;;;;;;;;20.47;40.08;100663.00;5110660;28;20016;-84
2022/04/12 12:29:52;;;;;;;;;;;;;;;20.48;39.94;100659.91;5094681;28;19920;-87
2022/04/12 12:32:17;;;;;;;;;;;;;;;20.49;39.68;100656.06;5133341;27;20366;-88